Time;durP1;ratioP1;P1;durP2;ratioP2;P2;SDS_P1;SDS_P2;PMS_P1;PMS_P2;Temp;Humidity;BMP_temperature;BMP_pressure;BME280_temperature;BME280_humidity;BME280_pressure;Samples;Min_cycle;Max_cycle;Signal;HPM_P1;HPM_P2
2023/08/23 00:01:46;;;;;;;8.85;4.40;;;18.40;99.90;;;;;;5057256;28;20626;-88
2023/08/23 00:04:11;;;;;;;7.00;4.45;;;18.40;99.90;;;;;;5055891;28;20060;-87
2023/08/23 00:06:37;;;;;;;10.20;4.47;;;18.40;99.90;;;;;;5062678;28;20123;-88
2023/08/23 00:09:04;;;;;;;9.32;5.13;;;18.30;99.90;;;;;;5061770;28;20133;-88
2023/08/23 00:11:30;;;;;;;10.75;5.05;;;18.20;99.90;;;;;;5062580;28;20040;-89
2023/08/23 00:13:56;;;;;;;8.73;5.57;;;18.20;99.90;;;;;;5053476;28;20033;-88
2023/08/23 00:16:21;;;;;;;10.63;5.65;;;18.20;99.90;;;;;;5063267;28;20415;-89
2023/08/23 00:18:49;;;;;;;10.85;5.07;;;18.20;99.90;;;;;;5041647;28;20036;-88
2023/08/23 00:21:15;;;;;;;12.05;5.15;;;18.20;99.90;;;;;;5055713;28;20048;-88
2023/08/23 00:23:41;;;;;;;9.50;4.28;;;18.20;99.90;;;;;;5056744;28;20033;-88
2023/08/23 00:26:06;;;;;;;10.93;4.25;;;18.20;99.90;;;;;;5065514;28;20044;-89
2023/08/23 00:28:32;;;;;;;10.70;5.13;;;18.20;99.90;;;;;;5043736;28;20086;-89
2023/08/23 00:30:58;;;;;;;5.72;3.58;;;18.20;99.90;;;;;;5059835;28;20045;-87
2023/08/23 00:33:24;;;;;;;10.40;5.70;;;18.10;99.90;;;;;;5045030;28;20029;-87
2023/08/23 00:35:49;;;;;;;6.93;4.35;;;18.00;99.90;;;;;;5068513;28;20055;-88
2023/08/23 00:38:15;;;;;;;7.45;4.07;;;18.00;99.90;;;;;;5067674;28;20037;-88
2023/08/23 00:40:41;;;;;;;7.85;5.50;;;17.90;99.90;;;;;;5043131;28;20094;-88
2023/08/23 00:43:07;;;;;;;13.60;5.85;;;17.90;99.90;;;;;;5054927;28;20051;-89
2023/08/23 00:45:37;;;;;;;8.88;6.28;;;17.90;99.90;;;;;;5059768;28;20045;-88
2023/08/23 00:48:03;;;;;;;10.88;4.75;;;17.90;99.90;;;;;;5056563;28;20044;-88
2023/08/23 00:50:33;;;;;;;7.95;4.22;;;17.90;99.90;;;;;;5039212;28;20096;-88
2023/08/23 00:53:01;;;;;;;8.98;4.85;;;17.90;99.90;;;;;;5064882;28;20054;-88
2023/08/23 00:55:27;;;;;;;9.65;6.35;;;17.90;99.90;;;;;;5056379;28;20076;-88
2023/08/23 00:57:53;;;;;;;9.25;4.57;;;17.80;99.90;;;;;;5056403;28;20115;-89
2023/08/23 01:00:19;;;;;;;11.07;5.03;;;17.80;99.90;;;;;;5054961;28;20045;-87
2023/08/23 01:02:45;;;;;;;11.25;4.80;;;17.80;99.90;;;;;;5046202;28;20102;-88
2023/08/23 01:05:11;;;;;;;6.95;3.88;;;17.80;99.90;;;;;;5061991;28;20044;-88
2023/08/23 01:07:50;;;;;;;9.07;4.88;;;17.70;99.90;;;;;;5058984;28;20041;-88
2023/08/23 01:10:38;;;;;;;5.78;4.10;;;17.70;99.90;;;;;;5055944;28;20068;-89
2023/08/23 01:13:49;;;;;;;6.50;4.65;;;17.60;99.90;;;;;;5061855;28;20045;-88
2023/08/23 01:16:15;;;;;;;8.27;4.30;;;17.50;99.90;;;;;;5008805;28;20045;-88
2023/08/23 01:18:42;;;;;;;8.07;3.83;;;17.40;99.90;;;;;;5022168;28;20087;-88
2023/08/23 01:21:10;;;;;;;12.75;4.93;;;17.40;99.90;;;;;;5007604;28;20049;-87
2023/08/23 01:23:37;;;;;;;7.20;3.90;;;17.40;99.90;;;;;;5025314;28;20056;-87
2023/08/23 01:26:03;;;;;;;9.15;4.57;;;17.40;99.90;;;;;;5034740;28;20053;-87
2023/08/23 01:28:28;;;;;;;7.85;4.47;;;17.30;99.90;;;;;;5002796;28;20050;-88
2023/08/23 01:30:59;;;;;;;8.18;5.05;;;17.30;99.90;;;;;;5003203;28;20409;-87
2023/08/23 01:33:44;;;;;;;9.25;4.88;;;17.20;99.90;;;;;;5023171;28;20045;-87
2023/08/23 01:36:23;;;;;;;6.53;3.55;;;17.20;99.90;;;;;;5008145;28;20049;-88
2023/08/23 01:38:50;;;;;;;7.13;4.45;;;17.20;99.90;;;;;;5019431;28;20180;-87
2023/08/23 01:41:17;;;;;;;9.15;4.78;;;17.20;99.90;;;;;;5023291;28;20041;-88
2023/08/23 01:43:46;;;;;;;7.63;4.20;;;17.20;99.90;;;;;;5023873;28;20575;-87
2023/08/23 01:46:11;;;;;;;16.33;4.28;;;17.30;99.90;;;;;;5003069;28;20045;-87
2023/08/23 01:48:37;;;;;;;9.85;3.38;;;17.20;99.90;;;;;;4994651;28;20369;-88
2023/08/23 01:51:03;;;;;;;7.82;3.60;;;17.30;99.90;;;;;;5050627;28;20056;-88
2023/08/23 01:53:29;;;;;;;9.30;3.95;;;17.20;99.90;;;;;;5058035;28;20037;-88
2023/08/23 01:55:55;;;;;;;9.60;3.63;;;17.30;99.90;;;;;;5058880;28;20480;-88
2023/08/23 01:58:21;;;;;;;6.20;3.30;;;17.20;99.90;;;;;;5064089;28;20047;-88
2023/08/23 02:00:47;;;;;;;7.65;4.28;;;17.30;99.90;;;;;;5063272;28;20041;-87
2023/08/23 02:03:15;;;;;;;16.50;5.22;;;17.20;99.90;;;;;;5059798;28;20575;-87
2023/08/23 02:05:41;;;;;;;52.22;6.55;;;17.20;99.90;;;;;;5064033;28;20172;-87
2023/08/23 02:08:07;;;;;;;14.57;5.93;;;17.10;99.90;;;;;;5056533;28;20875;-87
2023/08/23 02:10:32;;;;;;;7.03;4.38;;;17.00;99.90;;;;;;5052157;28;20041;-87
2023/08/23 02:12:59;;;;;;;8.88;3.97;;;17.00;99.90;;;;;;5057557;28;20039;-87
2023/08/23 02:15:25;;;;;;;9.85;4.20;;;16.90;99.90;;;;;;5048078;28;20041;-88
2023/08/23 02:17:52;;;;;;;8.95;3.88;;;16.80;99.90;;;;;;5056414;28;20132;-86
2023/08/23 02:20:18;;;;;;;6.35;3.53;;;16.80;99.90;;;;;;5058047;28;20079;-88
2023/08/23 02:22:43;;;;;;;7.60;3.22;;;16.90;99.90;;;;;;5087086;28;20087;-87
2023/08/23 02:25:09;;;;;;;6.20;3.05;;;16.90;99.90;;;;;;5049625;28;20125;-87
2023/08/23 02:27:35;;;;;;;7.25;2.80;;;16.80;99.90;;;;;;5056206;28;20036;-87
2023/08/23 02:30:04;;;;;;;5.60;3.33;;;16.80;99.90;;;;;;5068021;28;20048;-87
2023/08/23 02:32:29;;;;;;;7.05;3.33;;;16.80;99.90;;;;;;5041744;28;20041;-87
2023/08/23 02:35:17;;;;;;;9.55;4.75;;;16.90;99.90;;;;;;5058979;28;20048;-87
2023/08/23 02:37:42;;;;;;;6.63;4.35;;;16.80;99.90;;;;;;5062326;28;20040;-87
2023/08/23 02:40:08;;;;;;;5.22;3.42;;;16.80;99.90;;;;;;5057329;28;20043;-87
2023/08/23 02:42:34;;;;;;;7.65;4.10;;;16.80;99.90;;;;;;5047855;28;20033;-87
2023/08/23 02:44:59;;;;;;;5.90;4.00;;;16.80;99.90;;;;;;5059938;28;20036;-87
2023/08/23 02:47:25;;;;;;;6.18;3.50;;;16.70;99.90;;;;;;5068662;28;20112;-87
2023/08/23 02:49:51;;;;;;;7.82;4.20;;;16.80;99.90;;;;;;5060223;28;20399;-87
2023/08/23 02:52:16;;;;;;;9.88;3.80;;;16.80;99.90;;;;;;5059174;28;20374;-87
2023/08/23 02:54:42;;;;;;;5.28;3.28;;;16.80;99.90;;;;;;5056998;28;20112;-87
2023/08/23 02:57:07;;;;;;;8.18;3.25;;;16.80;99.90;;;;;;5060557;28;20048;-87
2023/08/23 02:59:33;;;;;;;7.75;4.00;;;16.70;99.90;;;;;;5061139;28;21454;-87
2023/08/23 03:02:00;;;;;;;4.75;2.90;;;16.70;99.90;;;;;;5051702;28;20518;-87
2023/08/23 03:04:25;;;;;;;5.32;3.58;;;16.70;99.90;;;;;;5056493;28;20087;-87
2023/08/23 03:06:51;;;;;;;6.65;4.05;;;16.60;99.90;;;;;;5056684;28;20049;-87
2023/08/23 03:09:17;;;;;;;22.77;4.93;;;16.60;99.90;;;;;;5061541;28;20043;-87
2023/08/23 03:11:42;;;;;;;6.20;4.50;;;16.50;99.90;;;;;;5062983;28;20024;-87
2023/08/23 03:14:09;;;;;;;11.40;3.85;;;16.50;99.90;;;;;;5039940;28;20044;-88
2023/08/23 03:16:34;;;;;;;28.73;4.72;;;16.40;99.90;;;;;;5091711;28;20068;-88
2023/08/23 03:19:00;;;;;;;31.38;4.53;;;16.40;99.90;;;;;;5057947;28;20110;-87
2023/08/23 03:21:26;;;;;;;13.05;4.35;;;16.30;99.90;;;;;;5062326;28;20036;-87
2023/08/23 03:23:51;;;;;;;6.00;3.55;;;16.20;99.90;;;;;;5060228;28;20097;-87
2023/08/23 03:26:17;;;;;;;5.75;3.30;;;16.00;99.90;;;;;;5054770;28;20044;-88
2023/08/23 03:28:42;;;;;;;6.32;4.07;;;16.00;99.90;;;;;;5047020;28;20025;-88
2023/08/23 03:31:08;;;;;;;5.75;3.88;;;16.10;99.90;;;;;;5063205;28;20044;-87
2023/08/23 03:33:34;;;;;;;4.60;3.50;;;16.10;99.90;;;;;;5061898;28;20037;-87
2023/08/23 03:35:59;;;;;;;5.05;3.58;;;16.10;99.90;;;;;;5056440;28;20098;-87
2023/08/23 03:38:25;;;;;;;5.35;3.85;;;16.10;99.90;;;;;;5060515;28;20036;-87
2023/08/23 03:40:51;;;;;;;6.03;4.13;;;16.20;99.90;;;;;;5060259;28;20028;-87
2023/08/23 03:43:17;;;;;;;4.63;2.85;;;16.20;99.90;;;;;;5057510;28;20040;-86
2023/08/23 03:45:47;;;;;;;5.90;4.10;;;16.20;99.90;;;;;;5060467;28;20033;-87
2023/08/23 03:48:14;;;;;;;6.82;4.07;;;16.20;99.90;;;;;;5036285;28;20033;-88
2023/08/23 03:50:39;;;;;;;5.95;4.03;;;16.10;99.90;;;;;;5062766;28;20391;-87
2023/08/23 03:53:05;;;;;;;7.47;5.25;;;16.10;99.90;;;;;;5044936;28;20028;-87
2023/08/23 03:55:30;;;;;;;6.80;4.53;;;16.10;99.90;;;;;;5092974;28;20068;-87
2023/08/23 03:57:56;;;;;;;6.60;4.90;;;16.10;99.90;;;;;;5058414;28;20051;-87
2023/08/23 04:00:22;;;;;;;7.15;5.00;;;16.10;99.90;;;;;;5055027;28;20039;-87
2023/08/23 04:02:48;;;;;;;9.80;5.57;;;16.10;99.90;;;;;;5055740;28;20506;-88
2023/08/23 04:05:14;;;;;;;12.50;5.60;;;16.00;99.90;;;;;;5059983;28;20053;-87
2023/08/23 04:07:40;;;;;;;8.15;5.43;;;16.00;99.90;;;;;;5076678;28;20044;-87
2023/08/23 04:10:06;;;;;;;7.68;5.80;;;15.90;99.90;;;;;;5057208;28;20040;-87
2023/08/23 04:12:32;;;;;;;14.48;6.20;;;16.10;99.90;;;;;;5057004;28;20045;-87
2023/08/23 04:14:58;;;;;;;9.48;6.78;;;16.10;99.90;;;;;;5044514;28;20055;-88
2023/08/23 04:17:26;;;;;;;9.93;6.85;;;16.10;99.90;;;;;;5058373;28;20095;-88
2023/08/23 04:19:52;;;;;;;9.30;6.25;;;16.10;99.90;;;;;;5041349;28;20178;-86
2023/08/23 04:22:17;;;;;;;7.63;5.68;;;16.10;99.90;;;;;;5057078;28;20158;-87
2023/08/23 04:24:43;;;;;;;12.73;6.85;;;16.20;99.90;;;;;;5041859;28;20040;-87
2023/08/23 04:27:09;;;;;;;14.38;8.07;;;16.20;99.90;;;;;;5064462;28;20399;-87
2023/08/23 04:29:35;;;;;;;11.00;7.10;;;16.20;99.90;;;;;;5041497;28;20127;-87
2023/08/23 04:32:00;;;;;;;11.32;8.05;;;16.20;99.90;;;;;;5063535;28;20042;-87
2023/08/23 04:34:26;;;;;;;10.07;7.68;;;16.20;99.90;;;;;;5064140;28;20184;-87
2023/08/23 04:36:52;;;;;;;10.45;7.45;;;16.20;99.90;;;;;;5056899;28;20047;-87
2023/08/23 04:39:17;;;;;;;9.38;6.60;;;16.10;99.90;;;;;;5047107;28;20036;-87
2023/08/23 04:41:43;;;;;;;10.15;7.57;;;16.00;99.90;;;;;;5043624;28;20040;-87
2023/08/23 04:44:09;;;;;;;9.70;7.18;;;16.00;99.90;;;;;;5057523;28;20123;-87
2023/08/23 04:46:34;;;;;;;10.35;7.72;;;16.00;99.90;;;;;;5056312;28;20049;-87
2023/08/23 04:49:00;;;;;;;10.02;8.20;;;16.00;99.90;;;;;;5053605;28;20048;-87
2023/08/23 04:51:26;;;;;;;10.23;7.80;;;16.00;99.90;;;;;;5044404;28;20029;-87
2023/08/23 04:53:52;;;;;;;11.55;8.20;;;16.10;99.90;;;;;;5058040;28;20044;-87
2023/08/23 04:56:18;;;;;;;10.85;7.60;;;16.10;99.90;;;;;;5035431;28;20040;-88
2023/08/23 04:58:43;;;;;;;10.27;7.18;;;16.00;99.90;;;;;;5036970;28;20129;-87
2023/08/23 05:01:09;;;;;;;11.98;8.63;;;16.00;99.90;;;;;;5049952;28;20041;-87
2023/08/23 05:03:35;;;;;;;9.18;7.00;;;16.00;99.90;;;;;;5031989;28;20052;-92
2023/08/23 05:06:02;;;;;;;11.43;8.35;;;16.00;99.90;;;;;;5052732;28;20124;-83
2023/08/23 05:08:29;;;;;;;10.93;7.80;;;16.00;99.90;;;;;;5054162;28;20045;-82
2023/08/23 05:10:56;;;;;;;10.55;7.97;;;16.00;99.90;;;;;;5060278;28;20094;-83
2023/08/23 05:13:22;;;;;;;9.20;6.35;;;16.10;99.90;;;;;;5062890;28;20640;-84
2023/08/23 05:15:55;;;;;;;11.45;7.60;;;16.00;99.90;;;;;;5041120;28;20071;-84
2023/08/23 05:18:24;;;;;;;9.52;7.25;;;16.10;99.90;;;;;;5058405;28;20075;-83
2023/08/23 05:20:59;;;;;;;12.18;8.02;;;16.10;99.90;;;;;;5056634;28;20134;-82
2023/08/23 05:23:25;;;;;;;11.88;8.05;;;16.00;99.90;;;;;;5057911;28;20696;-83
2023/08/23 05:25:55;;;;;;;10.43;8.45;;;16.10;99.90;;;;;;5062413;28;20244;-84
2023/08/23 05:28:21;;;;;;;14.70;9.93;;;16.10;99.90;;;;;;5037761;28;20104;-84
2023/08/23 05:30:49;;;;;;;14.38;8.80;;;16.10;99.90;;;;;;5065757;28;20131;-84
2023/08/23 05:33:15;;;;;;;12.15;9.98;;;16.10;99.90;;;;;;5061062;28;20033;-83
2023/08/23 05:35:41;;;;;;;13.20;10.65;;;16.10;99.90;;;;;;5054479;28;20037;-83
2023/08/23 05:38:07;;;;;;;15.23;10.95;;;16.10;99.90;;;;;;5056828;28;20124;-82
2023/08/23 05:40:33;;;;;;;16.00;11.85;;;16.10;99.90;;;;;;5052850;28;20135;-84
2023/08/23 05:42:59;;;;;;;12.40;9.68;;;16.10;99.90;;;;;;5057269;28;20123;-84
2023/08/23 05:45:26;;;;;;;14.40;11.10;;;16.10;99.90;;;;;;5058354;28;20047;-84
2023/08/23 05:47:57;;;;;;;14.85;10.15;;;16.20;99.90;;;;;;5055171;28;20048;-83
2023/08/23 05:50:23;;;;;;;15.93;10.52;;;16.20;99.90;;;;;;5063342;28;20037;-86
2023/08/23 05:52:48;;;;;;;18.95;11.45;;;16.20;99.90;;;;;;5067308;28;20051;-84
2023/08/23 05:55:14;;;;;;;15.20;12.45;;;16.10;99.90;;;;;;5061215;28;20127;-85
2023/08/23 05:57:40;;;;;;;16.25;12.13;;;16.20;99.90;;;;;;5046046;28;20036;-84
2023/08/23 06:00:09;;;;;;;16.50;12.20;;;16.20;99.90;;;;;;5058469;28;20037;-88
2023/08/23 06:02:35;;;;;;;14.13;10.65;;;16.20;99.90;;;;;;5061883;28;20048;-88
2023/08/23 06:05:02;;;;;;;17.67;11.38;;;16.20;99.90;;;;;;5061858;28;20044;-88
2023/08/23 06:07:28;;;;;;;17.50;11.75;;;16.20;99.90;;;;;;5061284;28;20044;-87
2023/08/23 06:09:53;;;;;;;13.75;9.82;;;16.20;99.90;;;;;;5059994;28;20028;-86
2023/08/23 06:12:19;;;;;;;19.83;13.68;;;16.30;99.90;;;;;;5063635;28;20033;-90
2023/08/23 06:14:46;;;;;;;15.10;10.85;;;16.40;99.90;;;;;;5045650;28;20485;-89
2023/08/23 06:17:12;;;;;;;19.50;12.50;;;16.40;99.90;;;;;;5088750;28;20544;-88
2023/08/23 06:19:38;;;;;;;15.88;11.05;;;16.40;99.90;;;;;;5061873;28;20037;-88
2023/08/23 06:22:03;;;;;;;16.73;11.65;;;16.40;99.90;;;;;;5059635;28;20052;-88
2023/08/23 06:24:29;;;;;;;16.70;11.80;;;16.40;99.90;;;;;;5076957;28;20115;-89
2023/08/23 06:26:55;;;;;;;18.70;14.18;;;16.40;99.90;;;;;;5061227;28;20032;-88
2023/08/23 06:29:20;;;;;;;18.85;13.25;;;16.40;99.90;;;;;;5061901;28;20186;-89
2023/08/23 06:31:46;;;;;;;19.08;13.70;;;16.40;99.90;;;;;;5063463;28;20032;-88
2023/08/23 06:34:11;;;;;;;17.92;13.52;;;16.50;99.90;;;;;;5057404;28;20044;-88
2023/08/23 06:36:37;;;;;;;19.45;11.95;;;16.50;99.90;;;;;;5036715;28;20048;-89
2023/08/23 06:39:03;;;;;;;25.90;16.45;;;16.50;99.90;;;;;;5059450;28;20476;-87
2023/08/23 06:41:28;;;;;;;13.65;9.52;;;16.60;99.90;;;;;;5041941;28;20140;-88
2023/08/23 06:43:59;;;;;;;20.80;14.75;;;16.60;99.90;;;;;;5062466;28;20390;-87
2023/08/23 06:46:25;;;;;;;16.02;10.02;;;16.60;99.90;;;;;;5041754;28;20128;-86
2023/08/23 06:48:51;;;;;;;25.60;16.40;;;16.70;99.90;;;;;;5043590;28;20103;-85
2023/08/23 06:51:16;;;;;;;22.35;14.95;;;16.70;99.90;;;;;;5065566;28;20040;-86
2023/08/23 06:53:45;;;;;;;21.15;14.40;;;16.70;99.90;;;;;;5048746;28;20380;-86
2023/08/23 06:56:11;;;;;;;22.95;16.15;;;16.70;99.90;;;;;;5058203;28;20451;-87
2023/08/23 06:58:38;;;;;;;24.40;17.05;;;16.80;99.90;;;;;;5066837;28;20495;-86
2023/08/23 07:01:07;;;;;;;26.67;18.52;;;16.80;99.90;;;;;;5038170;28;20459;-86
2023/08/23 07:03:32;;;;;;;23.25;15.60;;;16.90;99.90;;;;;;5055780;28;20052;-86
2023/08/23 07:06:02;;;;;;;24.50;15.73;;;16.90;99.90;;;;;;5048203;28;20450;-86
2023/08/23 07:08:27;;;;;;;24.85;15.80;;;17.00;99.90;;;;;;5059450;28;20036;-86
2023/08/23 07:10:53;;;;;;;20.48;13.57;;;17.00;99.90;;;;;;5066747;28;20120;-85
2023/08/23 07:13:19;;;;;;;18.83;12.80;;;17.10;99.90;;;;;;5065339;28;20037;-86
2023/08/23 07:15:44;;;;;;;23.95;16.67;;;17.10;99.90;;;;;;5052111;28;20128;-86
2023/08/23 07:18:10;;;;;;;24.30;16.90;;;17.20;99.90;;;;;;5064580;28;20102;-85
2023/08/23 07:20:36;;;;;;;21.67;15.60;;;17.20;99.90;;;;;;5065578;28;20044;-86
2023/08/23 07:23:02;;;;;;;20.92;15.20;;;17.30;99.90;;;;;;5064637;28;20130;-85
2023/08/23 07:25:29;;;;;;;16.85;12.80;;;17.30;99.90;;;;;;5061322;28;20421;-86
2023/08/23 07:27:55;;;;;;;19.92;12.77;;;17.40;99.90;;;;;;5036933;28;20104;-86
2023/08/23 07:30:21;;;;;;;19.73;14.10;;;17.40;99.90;;;;;;5059398;28;20111;-86
2023/08/23 07:32:47;;;;;;;24.00;12.90;;;17.50;99.90;;;;;;5061236;28;20838;-85
2023/08/23 07:35:12;;;;;;;15.52;11.18;;;17.60;99.90;;;;;;5041811;28;20052;-86
2023/08/23 07:37:38;;;;;;;15.93;9.95;;;17.70;99.90;;;;;;5036556;28;20037;-86
2023/08/23 07:40:06;;;;;;;12.10;9.68;;;17.80;99.90;;;;;;5047068;28;20040;-86
2023/08/23 07:42:32;;;;;;;12.13;8.63;;;18.00;99.90;;;;;;5055615;28;20056;-86
2023/08/23 07:44:57;;;;;;;11.85;7.88;;;18.10;99.90;;;;;;5045283;28;20102;-85
2023/08/23 07:47:23;;;;;;;12.02;6.13;;;18.20;99.90;;;;;;5063184;28;20090;-86
2023/08/23 07:49:49;;;;;;;9.63;7.15;;;18.20;99.90;;;;;;5058136;28;20494;-85
2023/08/23 07:52:15;;;;;;;9.25;6.82;;;18.40;99.90;;;;;;5055652;28;20387;-85
2023/08/23 07:54:40;;;;;;;9.48;6.18;;;18.40;99.90;;;;;;5060834;28;20036;-85
2023/08/23 07:57:06;;;;;;;10.07;5.22;;;18.40;99.90;;;;;;5061507;28;20041;-85
2023/08/23 07:59:31;;;;;;;7.28;4.95;;;18.40;99.90;;;;;;5045699;28;20045;-86
2023/08/23 08:01:57;;;;;;;8.27;5.10;;;18.50;99.90;;;;;;5062883;28;20049;-86
2023/08/23 08:04:23;;;;;;;6.75;4.15;;;18.50;99.90;;;;;;5063058;28;20060;-85
2023/08/23 08:06:48;;;;;;;8.57;5.22;;;18.60;99.90;;;;;;5050698;28;20040;-85
2023/08/23 08:09:15;;;;;;;8.52;4.65;;;18.60;99.90;;;;;;5054508;28;20121;-86
2023/08/23 08:11:41;;;;;;;6.50;3.53;;;18.60;99.90;;;;;;5043752;28;20548;-86
2023/08/23 08:14:07;;;;;;;8.73;4.15;;;18.60;99.90;;;;;;5040801;28;20078;-85
2023/08/23 08:16:32;;;;;;;8.55;4.53;;;18.70;99.90;;;;;;5057186;28;20041;-85
2023/08/23 08:18:58;;;;;;;9.60;4.55;;;18.70;99.90;;;;;;5049540;28;20083;-85
2023/08/23 08:21:25;;;;;;;7.15;3.92;;;18.70;99.90;;;;;;5040614;28;20437;-86
2023/08/23 08:23:51;;;;;;;11.35;4.85;;;18.90;99.90;;;;;;5044727;28;20502;-85
2023/08/23 08:26:19;;;;;;;8.52;4.60;;;19.00;99.90;;;;;;5038310;28;20075;-86
2023/08/23 08:28:45;;;;;;;8.45;4.15;;;19.10;99.90;;;;;;5065592;28;20044;-86
2023/08/23 08:31:11;;;;;;;9.23;4.38;;;19.30;99.90;;;;;;5088330;28;20198;-85
2023/08/23 08:33:38;;;;;;;8.45;3.30;;;19.40;99.90;;;;;;5051509;28;20037;-86
2023/08/23 08:36:04;;;;;;;10.73;4.13;;;19.60;99.90;;;;;;5057139;28;20056;-87
2023/08/23 08:38:30;;;;;;;7.80;3.60;;;19.70;99.90;;;;;;5037646;28;20041;-86
2023/08/23 08:40:55;;;;;;;7.10;3.10;;;19.90;99.90;;;;;;5038711;28;20048;-84
2023/08/23 08:43:22;;;;;;;8.25;4.10;;;20.00;99.90;;;;;;5037815;28;20043;-82
2023/08/23 08:45:47;;;;;;;6.57;3.60;;;20.20;99.90;;;;;;5084372;28;20464;-82
2023/08/23 08:48:13;;;;;;;7.50;3.30;;;20.30;99.90;;;;;;5060295;28;20039;-84
2023/08/23 08:50:42;;;;;;;5.28;2.97;;;20.40;99.90;;;;;;5055519;28;20031;-84
2023/08/23 08:53:13;;;;;;;6.72;3.72;;;20.60;99.90;;;;;;5060388;28;20040;-85
2023/08/23 08:55:41;;;;;;;9.05;3.97;;;20.70;99.90;;;;;;5064785;28;20063;-84
2023/08/23 08:58:08;;;;;;;6.60;3.55;;;20.80;99.90;;;;;;5042762;28;20051;-85
2023/08/23 09:00:35;;;;;;;7.80;3.55;;;20.80;99.90;;;;;;5056460;28;20048;-88
2023/08/23 09:03:02;;;;;;;6.32;2.83;;;20.90;99.90;;;;;;5053701;28;20049;-87
2023/08/23 09:05:28;;;;;;;6.07;2.88;;;21.00;99.90;;;;;;5077347;28;20049;-87
2023/08/23 09:07:55;;;;;;;6.65;3.05;;;21.10;99.90;;;;;;5042601;28;20104;-87
2023/08/23 09:10:22;;;;;;;7.03;3.08;;;21.20;99.90;;;;;;5045567;28;20033;-88
2023/08/23 09:12:47;;;;;;;7.00;2.95;;;21.30;99.90;;;;;;5059317;28;20071;-88
2023/08/23 09:15:16;;;;;;;8.02;2.90;;;21.30;99.90;;;;;;5055932;28;20029;-89
2023/08/23 09:17:41;;;;;;;10.88;4.55;;;21.40;99.90;;;;;;5056032;28;20049;-87
2023/08/23 09:20:08;;;;;;;6.63;3.10;;;21.50;99.90;;;;;;5056175;28;20102;-88
2023/08/23 09:22:35;;;;;;;9.48;2.88;;;21.60;99.90;;;;;;5045067;28;20052;-87
2023/08/23 09:25:05;;;;;;;5.88;2.95;;;21.70;99.90;;;;;;5064647;28;20044;-86
2023/08/23 09:27:31;;;;;;;7.97;3.60;;;21.80;99.90;;;;;;5042498;28;20037;-86
2023/08/23 09:30:01;;;;;;;13.07;3.65;;;22.00;99.90;;;;;;5051751;28;20033;-87
2023/08/23 09:32:27;;;;;;;7.75;2.97;;;22.10;99.90;;;;;;5059569;28;20467;-86
2023/08/23 09:34:53;;;;;;;5.32;2.40;;;22.30;99.90;;;;;;5039595;28;20086;-83
2023/08/23 09:37:18;;;;;;;9.13;2.50;;;22.50;99.90;;;;;;5036106;28;20040;-84
2023/08/23 09:39:45;;;;;;;7.75;2.83;;;22.60;99.90;;;;;;5052226;28;20112;-85
2023/08/23 09:42:14;;;;;;;7.13;2.72;;;22.80;99.90;;;;;;5057167;28;20033;-84
2023/08/23 09:44:41;;;;;;;8.73;2.90;;;22.80;99.90;;;;;;5050163;28;20120;-84
2023/08/23 09:47:17;;;;;;;8.43;2.72;;;22.90;99.90;;;;;;5035828;28;20082;-84
2023/08/23 09:49:44;;;;;;;6.05;3.00;;;22.80;99.90;;;;;;5055420;28;20116;-85
2023/08/23 09:52:13;;;;;;;9.48;3.67;;;22.80;99.90;;;;;;5043088;28;20068;-87
2023/08/23 09:55:02;;;;;;;7.88;2.70;;;22.70;99.90;;;;;;5049952;28;20086;-87
2023/08/23 09:57:34;;;;;;;7.15;2.83;;;22.60;99.90;;;;;;5059898;28;20044;-86
2023/08/23 10:00:00;;;;;;;10.18;3.60;;;22.60;99.90;;;;;;5056969;28;20074;-85
2023/08/23 10:02:28;;;;;;;8.45;3.58;;;22.60;99.90;;;;;;5051977;28;20041;-84
2023/08/23 10:04:54;;;;;;;7.57;3.83;;;22.60;99.90;;;;;;5054788;28;20040;-85
2023/08/23 10:07:20;;;;;;;7.35;3.85;;;22.70;99.90;;;;;;5049042;28;20028;-85
2023/08/23 10:09:47;;;;;;;9.40;4.57;;;22.80;99.90;;;;;;5081772;28;20048;-84
2023/08/23 10:12:14;;;;;;;8.13;3.88;;;22.90;99.90;;;;;;5054520;28;20043;-85
2023/08/23 10:14:46;;;;;;;9.05;4.32;;;23.00;99.90;;;;;;5059393;28;20040;-86
2023/08/23 10:17:16;;;;;;;4.53;2.95;;;23.10;99.90;;;;;;5082011;28;20095;-86
2023/08/23 10:19:41;;;;;;;7.63;4.38;;;23.30;99.90;;;;;;5061634;28;20041;-86
2023/08/23 10:22:07;;;;;;;10.77;4.63;;;23.40;99.90;;;;;;5048674;28;20411;-86
2023/08/23 10:24:34;;;;;;;7.85;5.22;;;23.40;99.90;;;;;;5053696;28;20169;-85
2023/08/23 10:27:07;;;;;;;8.95;3.63;;;23.30;99.90;;;;;;5050701;28;20094;-85
2023/08/23 10:29:34;;;;;;;6.77;3.73;;;23.20;99.90;;;;;;5063259;28;20490;-85
2023/08/23 10:32:05;;;;;;;7.13;3.35;;;23.30;99.90;;;;;;5057437;28;20076;-86
2023/08/23 10:34:36;;;;;;;7.68;3.60;;;23.30;99.90;;;;;;5058939;28;20064;-85
2023/08/23 10:37:14;;;;;;;8.50;3.45;;;23.30;99.90;;;;;;5063128;28;20045;-86
2023/08/23 10:39:49;;;;;;;6.45;3.90;;;23.30;99.90;;;;;;5055800;28;20052;-85
2023/08/23 10:42:18;;;;;;;7.72;3.90;;;23.30;99.90;;;;;;5057501;28;20040;-86
2023/08/23 10:45:04;;;;;;;7.68;3.60;;;23.40;99.90;;;;;;5059766;28;20368;-86
2023/08/23 10:47:36;;;;;;;8.98;4.18;;;23.50;99.90;;;;;;5058498;28;20067;-86
2023/08/23 10:50:03;;;;;;;8.73;3.85;;;23.60;99.90;;;;;;5088336;28;20045;-86
2023/08/23 10:52:30;;;;;;;9.52;4.60;;;23.70;99.90;;;;;;5060100;28;20072;-86
2023/08/23 10:54:57;;;;;;;9.18;4.50;;;23.80;99.90;;;;;;5058393;28;20040;-86
2023/08/23 10:57:22;;;;;;;8.98;4.43;;;24.00;99.90;;;;;;5062105;28;20056;-86
2023/08/23 10:59:48;;;;;;;10.77;4.55;;;24.10;99.90;;;;;;5061611;28;20036;-85
2023/08/23 11:02:15;;;;;;;8.02;4.60;;;24.30;99.90;;;;;;5063465;28;20043;-86
2023/08/23 11:04:42;;;;;;;8.75;4.53;;;24.40;99.90;;;;;;5053662;28;20140;-86
2023/08/23 11:07:11;;;;;;;9.23;4.18;;;24.60;99.90;;;;;;5053869;28;20066;-86
2023/08/23 11:09:36;;;;;;;9.13;4.53;;;24.70;99.90;;;;;;5056866;28;20033;-86
2023/08/23 11:12:05;;;;;;;9.15;3.42;;;24.90;99.90;;;;;;5052923;28;20408;-86
2023/08/23 11:14:31;;;;;;;7.38;3.25;;;25.00;99.90;;;;;;5051116;28;20040;-86
2023/08/23 11:16:57;;;;;;;7.22;3.88;;;25.20;99.90;;;;;;5055245;28;20041;-86
2023/08/23 11:19:22;;;;;;;8.68;4.03;;;25.30;99.90;;;;;;5059196;28;20047;-85
2023/08/23 11:21:48;;;;;;;8.60;3.22;;;25.30;99.90;;;;;;5055715;28;20040;-87
2023/08/23 11:24:14;;;;;;;7.22;3.15;;;25.30;99.90;;;;;;5059244;28;20098;-86
2023/08/23 11:26:40;;;;;;;8.70;3.35;;;25.10;99.90;;;;;;5056986;28;20121;-87
2023/08/23 11:29:06;;;;;;;5.82;2.92;;;24.90;99.90;;;;;;5061251;28;20410;-87
2023/08/23 11:31:35;;;;;;;6.78;3.00;;;24.80;99.90;;;;;;5057476;28;20048;-87
2023/08/23 11:34:09;;;;;;;8.93;4.10;;;24.70;99.90;;;;;;5057894;28;20033;-87
2023/08/23 11:36:39;;;;;;;8.57;4.57;;;24.60;99.90;;;;;;5056793;28;20045;-88
2023/08/23 11:39:06;;;;;;;9.68;4.85;;;24.60;99.90;;;;;;5053052;28;20380;-86
2023/08/23 11:41:35;;;;;;;9.00;4.68;;;24.50;99.90;;;;;;5054215;28;20033;-86
2023/08/23 11:44:05;;;;;;;7.55;4.75;;;24.50;99.90;;;;;;5056956;28;20036;-86
2023/08/23 11:46:34;;;;;;;10.95;5.35;;;24.40;99.90;;;;;;5088239;28;20661;-86
2023/08/23 11:49:05;;;;;;;8.15;4.93;;;24.40;99.90;;;;;;5047189;28;20044;-86
2023/08/23 11:51:43;;;;;;;8.90;4.28;;;24.40;99.90;;;;;;5054550;28;20048;-86
2023/08/23 11:54:10;;;;;;;7.13;3.40;;;24.50;99.90;;;;;;5048759;28;20041;-86
2023/08/23 11:56:39;;;;;;;6.78;3.33;;;24.70;99.90;;;;;;5087621;28;20076;-86
2023/08/23 11:59:04;;;;;;;7.75;3.65;;;24.90;99.90;;;;;;5052707;28;20048;-86
2023/08/23 12:01:30;;;;;;;7.28;3.88;;;24.90;99.90;;;;;;5048771;28;20117;-87
2023/08/23 12:03:56;;;;;;;6.68;4.20;;;25.00;99.90;;;;;;5054062;28;20041;-86
2023/08/23 12:06:22;;;;;;;7.63;3.17;;;25.00;99.90;;;;;;5053067;28;20041;-85
2023/08/23 12:08:47;;;;;;;7.13;2.88;;;25.20;99.90;;;;;;5051967;28;20496;-86
2023/08/23 12:11:13;;;;;;;7.15;2.67;;;25.20;99.90;;;;;;5058027;28;20569;-86
2023/08/23 12:13:41;;;;;;;6.25;2.28;;;25.30;99.90;;;;;;5058818;28;20040;-86
2023/08/23 12:16:07;;;;;;;6.10;1.98;;;25.40;99.90;;;;;;5054353;28;20049;-85
2023/08/23 12:18:33;;;;;;;6.40;2.17;;;25.40;99.90;;;;;;5056727;28;20044;-86
2023/08/23 12:20:59;;;;;;;6.15;2.38;;;25.40;99.90;;;;;;5055257;28;20040;-86
2023/08/23 12:23:24;;;;;;;7.00;2.40;;;25.50;99.90;;;;;;5050256;28;20041;-85
2023/08/23 12:25:50;;;;;;;8.10;2.75;;;25.60;99.90;;;;;;5056418;28;20076;-85
2023/08/23 12:28:16;;;;;;;6.22;1.92;;;25.70;99.90;;;;;;5050566;28;20045;-85
2023/08/23 12:30:42;;;;;;;4.85;1.80;;;25.80;99.90;;;;;;5085652;28;20086;-86
2023/08/23 12:33:08;;;;;;;5.13;1.70;;;25.90;99.90;;;;;;5050225;28;20116;-85
2023/08/23 12:35:33;;;;;;;4.95;1.67;;;26.10;99.90;;;;;;5049184;28;20129;-86
2023/08/23 12:37:59;;;;;;;3.85;1.65;;;26.20;99.90;;;;;;5061388;28;20056;-86
2023/08/23 12:40:25;;;;;;;4.55;1.98;;;26.40;99.90;;;;;;5052121;28;20036;-86